Burnet's Hourly Summary for Saturday, July 7, 2018
Hour Temp
(f)
RH
(%)
Solar Rad.
(MJ/m2)
Rainfall
(in)
Wind
(mph)
7/7/2018 12:00 AM 77 79 0 0 4.9
7/7/2018 1:00 AM 76 81 0 0 4.57
7/7/2018 2:00 AM 75 83 0 0 2.62
7/7/2018 3:00 AM 74 84 0 0 1.79
7/7/2018 4:00 AM 73 87 0 0 1.02
7/7/2018 5:00 AM 72 90 0 0 1.08
7/7/2018 6:00 AM 71 91 0 0 1.57
7/7/2018 7:00 AM 71 91 0.01 0 1.9
7/7/2018 8:00 AM 74 89 0.17 0 2.13
7/7/2018 9:00 AM 78 85 0.57 0 2.92
7/7/2018 10:00 AM 83 73 1.49 0 3.05
7/7/2018 11:00 AM 85 58 1.93 0 2.14
7/7/2018 12:00 PM 85 56 1.87 0 4.88
7/7/2018 1:00 PM 83 60 1.82 0 5.45
7/7/2018 2:00 PM 83 64 2.54 0 4.05
7/7/2018 3:00 PM 81 67 0.76 0 4.7
7/7/2018 4:00 PM 78 76 0.4 0 3.28
7/7/2018 5:00 PM 78 76 0.39 0 1.78
7/7/2018 6:00 PM 79 72 0.43 0 0.99
7/7/2018 7:00 PM 79 71 0.46 0 3.12
7/7/2018 8:00 PM 79 76 0.23 0 2.26
7/7/2018 9:00 PM 77 84 0.04 0 1.62
7/7/2018 10:00 PM 75 88 0 0 0.45
7/7/2018 11:00 PM 74 90 0 0 0.48
Data Summary 77 77 13.11 0.00 2.61